createdAt,value
2022-11-19T00:00:26.986Z,89.13
2022-11-19T00:01:21.997Z,89.21
2022-11-19T00:02:17.196Z,89.18
2022-11-19T00:03:12.173Z,89.13
2022-11-19T00:04:07.291Z,89.07
2022-11-19T00:05:02.288Z,89.13
2022-11-19T00:05:57.428Z,88.86
2022-11-19T00:06:52.400Z,88.71
2022-11-19T00:07:47.515Z,88.66
2022-11-19T00:08:42.509Z,88.65
2022-11-19T00:09:37.598Z,88.79
2022-11-19T00:10:32.743Z,89.00
2022-11-19T00:11:28.043Z,89.26
2022-11-19T00:12:22.844Z,89.34
2022-11-19T00:13:17.963Z,89.40
2022-11-19T00:14:12.942Z,89.58
2022-11-19T00:15:08.052Z,89.65
2022-11-19T00:16:03.459Z,89.79
2022-11-19T00:16:58.703Z,90.00
2022-11-19T00:17:53.805Z,90.04
2022-11-19T00:18:50.693Z,90.13
2022-11-19T00:19:45.708Z,90.19
2022-11-19T00:20:40.940Z,90.30
2022-11-19T00:21:35.952Z,90.43
2022-11-19T00:22:31.169Z,90.48
2022-11-19T00:23:26.225Z,90.57
2022-11-19T00:24:21.314Z,90.59
2022-11-19T00:25:16.409Z,90.61
2022-11-19T00:26:12.214Z,90.70
2022-11-19T00:27:07.425Z,90.71
2022-11-19T00:28:02.510Z,90.80
2022-11-19T00:28:58.311Z,90.92
2022-11-19T00:29:53.570Z,90.95
2022-11-19T00:30:49.376Z,90.94
2022-11-19T00:31:44.747Z,90.99
2022-11-19T00:32:39.813Z,91.01
2022-11-19T00:33:35.638Z,91.12
2022-11-19T00:34:30.738Z,91.14
2022-11-19T00:35:25.836Z,91.21
2022-11-19T00:36:22.314Z,91.20
2022-11-19T00:37:17.445Z,91.17
2022-11-19T00:38:13.251Z,91.14
2022-11-19T00:39:08.455Z,91.15
2022-11-19T00:40:03.585Z,91.10
2022-11-19T00:40:59.396Z,91.05
2022-11-19T00:41:54.547Z,91.05
2022-11-19T00:42:50.354Z,91.19
2022-11-19T00:43:45.454Z,91.36
2022-11-19T00:44:40.751Z,91.25
2022-11-19T00:45:36.403Z,91.10
2022-11-19T00:46:31.544Z,90.90
2022-11-19T00:47:26.787Z,90.77
2022-11-19T00:48:22.983Z,90.71
2022-11-19T00:49:18.481Z,90.68
2022-11-19T00:50:13.895Z,90.57
2022-11-19T00:51:08.963Z,90.50
2022-11-19T00:52:04.099Z,90.47
2022-11-19T00:52:59.924Z,90.48
2022-11-19T00:53:55.188Z,90.46
2022-11-19T00:54:51.982Z,90.46
2022-11-19T00:55:46.256Z,90.53
2022-11-19T00:56:41.218Z,90.64
2022-11-19T00:57:38.008Z,90.78
2022-11-19T00:58:32.991Z,90.91
2022-11-19T00:59:28.372Z,91.02
2022-11-19T01:00:24.576Z,91.10
2022-11-19T01:01:19.884Z,91.20
2022-11-19T01:02:15.686Z,91.27
2022-11-19T01:03:11.077Z,91.25
2022-11-19T01:04:06.330Z,91.22
2022-11-19T01:05:02.030Z,91.23
2022-11-19T01:05:57.137Z,91.37
2022-11-19T01:06:52.957Z,91.17
2022-11-19T01:07:48.027Z,91.11
2022-11-19T01:08:43.442Z,91.12
2022-11-19T01:09:39.121Z,91.29
2022-11-19T01:10:34.338Z,91.32
2022-11-19T01:11:29.480Z,91.53
2022-11-19T01:12:26.200Z,91.66
2022-11-19T01:13:21.428Z,91.66
2022-11-19T01:14:16.626Z,91.68
2022-11-19T01:15:12.400Z,91.73
2022-11-19T01:16:07.557Z,91.77
2022-11-19T01:17:03.329Z,91.83
2022-11-19T01:17:58.567Z,91.72
2022-11-19T01:18:53.889Z,91.47
2022-11-19T01:19:49.669Z,91.21
2022-11-19T01:20:44.891Z,90.92
2022-11-19T01:21:40.000Z,90.64
2022-11-19T01:22:36.482Z,90.54
2022-11-19T01:23:31.730Z,90.42
2022-11-19T01:24:27.567Z,90.42
2022-11-19T01:25:22.712Z,90.68
2022-11-19T01:26:17.941Z,91.00
2022-11-19T01:27:13.205Z,91.23
2022-11-19T01:28:08.234Z,91.42
2022-11-19T01:29:03.382Z,91.62
2022-11-19T01:29:58.351Z,91.72
2022-11-19T01:30:53.494Z,91.83
2022-11-19T01:31:48.474Z,91.94
2022-11-19T01:32:43.622Z,92.03
2022-11-19T01:33:38.657Z,92.12
2022-11-19T01:34:38.932Z,92.23
2022-11-19T01:35:34.005Z,92.30
2022-11-19T01:36:29.230Z,92.43
2022-11-19T01:37:24.316Z,92.56
2022-11-19T01:38:19.466Z,92.60
2022-11-19T01:39:14.423Z,92.72
2022-11-19T01:40:09.424Z,92.86
2022-11-19T01:41:04.482Z,93.02
2022-11-19T01:41:59.603Z,93.09
2022-11-19T01:42:54.687Z,93.10
2022-11-19T01:43:49.879Z,93.19
2022-11-19T01:44:44.829Z,93.19
2022-11-19T01:45:39.954Z,93.24
2022-11-19T01:46:35.045Z,93.27
2022-11-19T01:47:30.146Z,93.37
2022-11-19T01:48:25.255Z,93.20
2022-11-19T01:49:20.580Z,93.17
2022-11-19T01:50:15.316Z,93.11
2022-11-19T01:51:10.473Z,93.14
2022-11-19T01:52:05.503Z,93.25
2022-11-19T01:53:00.614Z,93.33
2022-11-19T01:54:00.125Z,93.28
2022-11-19T01:54:55.234Z,93.25
2022-11-19T01:55:50.307Z,93.30
2022-11-19T01:56:45.403Z,93.36
2022-11-19T01:57:40.489Z,93.47
2022-11-19T01:58:35.604Z,93.33
2022-11-19T01:59:30.561Z,93.34
2022-11-19T02:00:25.653Z,93.34
2022-11-19T02:01:20.782Z,93.31
2022-11-19T02:02:15.752Z,93.24
2022-11-19T02:03:10.869Z,93.22
2022-11-19T02:04:05.891Z,93.14
2022-11-19T02:05:00.965Z,93.08
2022-11-19T02:05:56.229Z,93.08
2022-11-19T02:06:51.303Z,93.05
2022-11-19T02:07:46.757Z,93.05
2022-11-19T02:08:41.987Z,93.02
2022-11-19T02:09:36.980Z,92.96
2022-11-19T02:10:32.087Z,92.94
2022-11-19T02:11:27.207Z,92.84
2022-11-19T02:12:22.285Z,92.82
2022-11-19T02:13:17.615Z,92.83
2022-11-19T02:14:12.738Z,92.82
2022-11-19T02:15:07.835Z,92.81
2022-11-19T02:17:29.405Z,93.50
2022-11-19T02:18:25.353Z,93.34
2022-11-19T02:19:19.864Z,93.29
2022-11-19T02:20:14.861Z,93.18
2022-11-19T02:21:10.059Z,93.12
2022-11-19T02:22:05.276Z,92.98
2022-11-19T02:23:00.403Z,92.93
2022-11-19T02:23:55.491Z,92.80
2022-11-19T02:24:50.604Z,92.72
2022-11-19T02:25:45.669Z,92.60
2022-11-19T02:26:40.867Z,92.46
2022-11-19T02:27:36.237Z,92.22
2022-11-19T02:28:31.246Z,92.09
2022-11-19T02:29:26.457Z,91.99
2022-11-19T02:30:21.551Z,91.96
2022-11-19T02:31:16.807Z,91.89
2022-11-19T02:32:11.861Z,91.87
2022-11-19T02:33:06.987Z,91.91
2022-11-19T02:34:02.056Z,91.83
2022-11-19T02:34:57.330Z,91.78
2022-11-19T02:35:52.401Z,91.72
2022-11-19T02:36:47.629Z,91.68
2022-11-19T02:37:42.900Z,91.64
2022-11-19T02:38:37.853Z,91.62
2022-11-19T02:39:33.054Z,91.70
2022-11-19T02:40:28.165Z,91.73
2022-11-19T02:41:23.345Z,91.91
2022-11-19T02:42:18.415Z,91.97
2022-11-19T02:43:13.502Z,92.10
2022-11-19T02:44:08.725Z,92.30
2022-11-19T02:45:03.772Z,92.43
2022-11-19T02:45:58.874Z,92.53
2022-11-19T02:46:53.944Z,92.58
2022-11-19T02:47:49.320Z,92.63
2022-11-19T02:48:44.277Z,92.64
2022-11-19T02:49:39.487Z,92.71
2022-11-19T02:50:34.663Z,92.71
2022-11-19T02:51:29.750Z,92.77
2022-11-19T02:52:24.947Z,92.82
2022-11-19T02:53:19.933Z,92.81
2022-11-19T02:54:14.998Z,92.82
2022-11-19T02:55:10.215Z,92.89
2022-11-19T02:56:05.309Z,92.98
2022-11-19T02:57:00.535Z,92.93
2022-11-19T02:57:55.759Z,92.85
2022-11-19T02:58:50.892Z,92.71
2022-11-19T02:59:45.945Z,92.60
2022-11-19T03:00:41.048Z,92.54
2022-11-19T03:01:36.189Z,92.49
2022-11-19T03:02:31.243Z,92.39
2022-11-19T03:03:26.333Z,92.31
2022-11-19T03:04:21.542Z,92.26
2022-11-19T03:05:16.599Z,92.34
2022-11-19T03:06:12.392Z,92.40
2022-11-19T03:07:06.974Z,92.30
2022-11-19T03:08:02.181Z,92.18
2022-11-19T03:08:57.275Z,92.09
2022-11-19T03:09:52.481Z,92.00
2022-11-19T03:10:47.567Z,91.99
2022-11-19T03:11:42.779Z,91.95
2022-11-19T03:12:37.863Z,91.91
2022-11-19T03:13:32.973Z,91.78
2022-11-19T03:14:28.038Z,91.66
2022-11-19T03:15:23.255Z,91.56
2022-11-19T03:16:18.339Z,91.49
2022-11-19T03:17:13.596Z,91.53
2022-11-19T03:18:08.795Z,91.53
2022-11-19T03:19:03.885Z,91.51
2022-11-19T03:19:58.936Z,91.60
2022-11-19T03:20:54.159Z,91.64
2022-11-19T03:21:49.368Z,91.64
2022-11-19T03:22:44.438Z,91.44
2022-11-19T03:23:39.570Z,91.27
2022-11-19T03:24:34.637Z,91.32
2022-11-19T03:25:29.694Z,91.18
2022-11-19T03:26:24.797Z,90.97
2022-11-19T03:27:19.850Z,90.94
2022-11-19T03:28:15.197Z,90.90
2022-11-19T03:29:10.199Z,90.90
2022-11-19T03:30:05.284Z,90.95
2022-11-19T03:31:00.379Z,90.96
2022-11-19T03:31:55.636Z,91.05
2022-11-19T03:32:50.702Z,91.13
2022-11-19T03:33:45.810Z,91.21
2022-11-19T03:34:40.858Z,91.24
2022-11-19T03:35:36.076Z,91.30
2022-11-19T03:36:31.155Z,91.41
2022-11-19T03:37:26.364Z,91.42
2022-11-19T03:38:21.622Z,91.53
2022-11-19T03:39:16.741Z,91.62
2022-11-19T03:40:11.703Z,91.65
2022-11-19T03:41:06.788Z,91.69
2022-11-19T03:42:01.995Z,91.65
2022-11-19T03:42:57.182Z,91.51
2022-11-19T03:43:52.464Z,91.29
2022-11-19T03:44:47.509Z,91.13
2022-11-19T03:45:42.739Z,91.07
2022-11-19T03:46:37.807Z,90.90
2022-11-19T03:47:33.025Z,90.70
2022-11-19T03:48:28.206Z,90.56
2022-11-19T03:49:23.336Z,90.51
2022-11-19T03:50:18.387Z,90.46
2022-11-19T03:51:13.638Z,90.30
2022-11-19T03:52:08.693Z,90.10
2022-11-19T03:53:04.686Z,89.94
2022-11-19T03:53:59.115Z,89.87
2022-11-19T03:54:54.186Z,89.88
2022-11-19T03:55:49.260Z,89.97
2022-11-19T03:56:44.371Z,90.07
2022-11-19T03:57:39.469Z,90.16
2022-11-19T03:58:34.690Z,90.26
2022-11-19T03:59:30.437Z,90.40
2022-11-19T04:00:24.917Z,90.51
2022-11-19T04:01:20.079Z,90.58
2022-11-19T04:02:15.192Z,90.68
2022-11-19T04:03:10.266Z,90.82
2022-11-19T04:04:05.364Z,90.98
2022-11-19T04:05:00.484Z,91.04
2022-11-19T04:05:55.554Z,91.02
2022-11-19T04:06:50.638Z,91.01
2022-11-19T04:07:45.923Z,90.94
2022-11-19T04:08:41.093Z,90.90
2022-11-19T04:09:36.202Z,90.80
2022-11-19T04:10:31.260Z,90.75
2022-11-19T04:11:28.428Z,90.67
2022-11-19T04:12:21.475Z,90.68
2022-11-19T04:13:16.671Z,90.71
2022-11-19T04:14:11.778Z,90.73
2022-11-19T04:15:06.989Z,90.72
2022-11-19T04:16:02.319Z,90.72
2022-11-19T04:16:57.478Z,90.69
2022-11-19T04:17:52.414Z,90.60
2022-11-19T04:18:47.498Z,90.56
2022-11-19T04:19:42.693Z,90.78
2022-11-19T04:20:37.717Z,90.85
2022-11-19T04:21:32.978Z,90.94
2022-11-19T04:22:28.672Z,91.05
2022-11-19T04:23:23.206Z,91.02
2022-11-19T04:24:18.295Z,90.96
2022-11-19T04:25:13.632Z,90.87
2022-11-19T04:26:08.807Z,90.81
2022-11-19T04:27:03.979Z,90.78
2022-11-19T04:27:59.043Z,90.82
2022-11-19T04:28:54.278Z,90.77
2022-11-19T04:29:49.309Z,90.69
2022-11-19T04:30:44.532Z,90.67
2022-11-19T04:31:39.631Z,90.71
2022-11-19T04:32:34.744Z,90.89
2022-11-19T04:33:29.797Z,91.00
2022-11-19T04:34:25.048Z,90.99
2022-11-19T04:35:20.111Z,90.96
2022-11-19T04:36:15.492Z,90.84
2022-11-19T04:37:10.603Z,90.64
2022-11-19T04:38:05.693Z,90.48
2022-11-19T04:39:00.670Z,90.55
2022-11-19T04:39:55.888Z,90.46
2022-11-19T04:40:50.959Z,90.32
2022-11-19T04:41:46.126Z,90.23
2022-11-19T04:42:41.179Z,90.15
2022-11-19T04:43:36.422Z,90.25
2022-11-19T04:44:31.496Z,90.38
2022-11-19T04:45:26.703Z,90.43
2022-11-19T04:46:21.887Z,90.57
2022-11-19T04:47:17.011Z,90.76
2022-11-19T04:48:12.095Z,90.89
2022-11-19T04:49:07.211Z,90.97
2022-11-19T04:50:02.263Z,91.10
2022-11-19T04:50:57.558Z,91.19
2022-11-19T04:51:52.627Z,91.28
2022-11-19T04:52:47.894Z,91.28
2022-11-19T04:53:43.003Z,91.34
2022-11-19T04:54:38.113Z,91.39
2022-11-19T04:55:33.179Z,91.45
2022-11-19T04:56:28.536Z,91.51
2022-11-19T04:57:23.614Z,91.53
2022-11-19T04:58:18.713Z,91.57
2022-11-19T04:59:13.801Z,91.59
2022-11-19T05:00:09.009Z,91.63
2022-11-19T05:01:04.147Z,91.65
2022-11-19T05:01:59.383Z,91.80
2022-11-19T05:02:54.438Z,91.88
2022-11-19T05:03:49.654Z,91.93
2022-11-19T05:04:44.855Z,91.93
2022-11-19T05:05:39.953Z,91.99
2022-11-19T05:06:35.146Z,92.00
2022-11-19T05:07:30.360Z,92.04
2022-11-19T05:08:25.453Z,92.04
2022-11-19T05:09:21.002Z,92.06
2022-11-19T05:10:15.688Z,92.04
2022-11-19T05:11:10.913Z,92.05
2022-11-19T05:12:06.031Z,92.02
2022-11-19T05:13:01.116Z,92.04
2022-11-19T05:13:56.305Z,92.07
2022-11-19T05:14:51.527Z,92.06
2022-11-19T05:15:46.832Z,92.03
2022-11-19T05:16:42.600Z,92.05
2022-11-19T05:17:36.856Z,92.04
2022-11-19T05:18:32.068Z,92.03
2022-11-19T05:19:27.163Z,92.03
2022-11-19T05:20:22.381Z,92.04
2022-11-19T05:21:17.475Z,92.00
2022-11-19T05:22:12.638Z,91.99
2022-11-19T05:23:07.721Z,92.01
2022-11-19T05:24:02.815Z,91.97
2022-11-19T05:24:57.872Z,91.91
2022-11-19T05:25:53.237Z,91.92
2022-11-19T05:26:48.325Z,91.89
2022-11-19T05:27:43.408Z,91.78
2022-11-19T05:28:39.768Z,91.77
2022-11-19T05:29:33.634Z,91.78
2022-11-19T05:30:28.694Z,91.78
2022-11-19T05:31:24.064Z,91.72
2022-11-19T05:32:19.017Z,91.69
2022-11-19T05:33:14.369Z,91.66
2022-11-19T05:34:09.319Z,91.51
2022-11-19T05:35:04.415Z,91.47
2022-11-19T05:35:59.482Z,91.45
2022-11-19T05:36:54.631Z,91.42
2022-11-19T05:37:49.771Z,91.45
2022-11-19T05:38:45.031Z,91.44
2022-11-19T05:39:40.106Z,91.43
2022-11-19T05:40:35.336Z,91.50
2022-11-19T05:41:30.544Z,91.61
2022-11-19T05:42:25.647Z,91.61
2022-11-19T05:43:20.760Z,91.58
2022-11-19T05:44:15.870Z,91.56
2022-11-19T05:45:11.066Z,91.54
2022-11-19T05:46:06.261Z,91.47
2022-11-19T05:47:01.350Z,91.40
2022-11-19T05:47:56.578Z,91.40
2022-11-19T05:48:51.699Z,91.36
2022-11-19T05:49:46.789Z,91.35
2022-11-19T05:50:41.858Z,91.31
2022-11-19T05:51:37.244Z,91.27
2022-11-19T05:52:32.340Z,91.21
2022-11-19T05:53:27.468Z,91.20
2022-11-19T05:54:22.459Z,91.19
2022-11-19T05:55:17.692Z,91.15
2022-11-19T05:56:12.757Z,91.16
2022-11-19T05:57:07.889Z,91.14
2022-11-19T05:58:02.948Z,91.10
2022-11-19T05:58:58.165Z,91.09
2022-11-19T05:59:53.383Z,91.07
2022-11-19T06:00:48.682Z,91.09
2022-11-19T06:01:43.619Z,91.07
2022-11-19T06:02:38.756Z,91.10
2022-11-19T06:03:33.830Z,91.13
2022-11-19T06:04:28.957Z,91.10
2022-11-19T06:05:24.105Z,91.09
2022-11-19T06:06:19.164Z,91.04
2022-11-19T06:07:14.276Z,91.10
2022-11-19T06:08:09.481Z,91.10
2022-11-19T06:09:04.577Z,91.20
2022-11-19T06:09:59.740Z,91.18
2022-11-19T06:10:54.829Z,91.10
2022-11-19T06:11:50.173Z,91.04
2022-11-19T06:12:45.993Z,90.93
2022-11-19T06:13:41.007Z,90.89
2022-11-19T06:14:35.612Z,90.85
2022-11-19T06:15:31.041Z,90.82
2022-11-19T06:16:26.007Z,90.82
2022-11-19T06:17:21.178Z,90.77
2022-11-19T06:18:16.315Z,90.74
2022-11-19T06:19:11.591Z,90.87
2022-11-19T06:20:06.765Z,90.99
2022-11-19T06:21:01.919Z,90.85
2022-11-19T06:21:57.215Z,90.62
2022-11-19T06:22:52.276Z,90.45
2022-11-19T06:23:47.393Z,90.37
2022-11-19T06:24:42.575Z,90.45
2022-11-19T06:25:37.712Z,90.49
2022-11-19T06:26:32.871Z,90.48
2022-11-19T06:27:28.087Z,90.38
2022-11-19T06:28:23.410Z,90.26
2022-11-19T06:29:19.018Z,90.18
2022-11-19T06:30:14.034Z,90.21
2022-11-19T06:31:09.102Z,90.23
2022-11-19T06:32:04.446Z,90.25
2022-11-19T06:32:59.526Z,90.37
2022-11-19T06:33:54.738Z,90.51
2022-11-19T06:34:49.969Z,90.53
2022-11-19T06:35:45.266Z,90.52
2022-11-19T06:36:44.924Z,90.46
2022-11-19T06:37:36.832Z,90.41
2022-11-19T06:38:31.127Z,90.36
2022-11-19T06:39:26.394Z,90.29
2022-11-19T06:40:21.671Z,90.32
2022-11-19T06:41:16.951Z,90.39
2022-11-19T06:42:12.362Z,90.43
2022-11-19T06:43:07.504Z,90.49
2022-11-19T06:44:02.766Z,90.51
2022-11-19T06:44:58.023Z,90.54
2022-11-19T06:45:53.272Z,90.57
2022-11-19T06:46:48.563Z,90.62
2022-11-19T06:47:43.834Z,90.73
2022-11-19T06:48:39.062Z,90.82
2022-11-19T06:49:34.294Z,90.78
2022-11-19T06:50:29.570Z,90.82
2022-11-19T06:51:24.846Z,90.84
2022-11-19T06:52:20.264Z,90.98
2022-11-19T06:53:15.382Z,91.08
2022-11-19T06:54:10.773Z,91.11
2022-11-19T06:55:05.887Z,91.18
2022-11-19T06:56:01.170Z,91.17
2022-11-19T06:56:56.398Z,91.13
2022-11-19T06:57:51.698Z,91.10
2022-11-19T06:58:46.962Z,91.17
2022-11-19T06:59:44.314Z,91.15
2022-11-19T07:00:39.430Z,91.18
2022-11-19T07:01:34.877Z,91.18
2022-11-19T07:02:30.157Z,91.20
2022-11-19T07:03:25.437Z,91.18
2022-11-19T07:04:20.711Z,91.29
2022-11-19T07:05:16.045Z,91.31
2022-11-19T07:06:11.336Z,91.36
2022-11-19T07:07:06.729Z,91.42
2022-11-19T07:08:03.432Z,91.49
2022-11-19T07:08:57.292Z,91.45
2022-11-19T07:09:52.734Z,91.48
2022-11-19T07:10:47.920Z,91.48
2022-11-19T07:11:43.230Z,91.44
2022-11-19T07:12:38.583Z,91.42
2022-11-19T07:13:33.890Z,91.43
2022-11-19T07:14:29.170Z,91.31
2022-11-19T07:15:24.490Z,91.17
2022-11-19T07:16:19.914Z,91.21
2022-11-19T07:17:15.093Z,91.32
2022-11-19T07:18:10.418Z,91.34
2022-11-19T07:19:05.726Z,91.50
2022-11-19T07:20:01.065Z,91.38
2022-11-19T07:20:56.356Z,91.12
2022-11-19T07:21:51.847Z,90.98
2022-11-19T07:22:47.026Z,90.90
2022-11-19T07:23:42.389Z,90.87
2022-11-19T07:24:37.815Z,90.80
2022-11-19T07:25:33.205Z,90.80
2022-11-19T07:26:28.555Z,90.81
2022-11-19T07:27:23.966Z,90.78
2022-11-19T07:28:19.331Z,90.77
2022-11-19T07:29:14.854Z,90.74
2022-11-19T07:30:10.099Z,90.77
2022-11-19T07:31:05.527Z,90.74
2022-11-19T07:32:01.338Z,90.70
2022-11-19T07:32:56.413Z,90.62
2022-11-19T07:33:51.462Z,90.66
2022-11-19T07:34:46.589Z,90.74
2022-11-19T07:35:41.692Z,90.71
2022-11-19T07:36:36.810Z,90.33
2022-11-19T07:37:31.907Z,89.98
2022-11-19T07:38:26.983Z,89.83
2022-11-19T07:39:22.554Z,89.84
2022-11-19T07:40:17.189Z,89.89
2022-11-19T07:41:12.383Z,89.88
2022-11-19T07:42:07.536Z,89.91
2022-11-19T07:43:02.632Z,90.01
2022-11-19T07:43:57.703Z,90.09
2022-11-19T07:44:54.934Z,90.09
2022-11-19T07:45:47.810Z,90.11
2022-11-19T07:46:42.986Z,90.06
2022-11-19T07:47:37.947Z,90.01
2022-11-19T07:48:33.175Z,89.82
2022-11-19T07:49:28.270Z,89.65
2022-11-19T07:50:23.404Z,89.64
2022-11-19T07:51:18.366Z,89.68
2022-11-19T07:52:13.483Z,89.57
2022-11-19T07:53:08.559Z,89.53
2022-11-19T07:54:03.674Z,89.45
2022-11-19T07:54:58.856Z,89.39
2022-11-19T07:55:54.692Z,89.42
2022-11-19T07:56:49.926Z,89.62
2022-11-19T07:57:45.430Z,89.65
2022-11-19T07:58:40.680Z,89.79
2022-11-19T07:59:36.189Z,89.80
2022-11-19T08:00:31.680Z,89.83
2022-11-19T08:01:27.056Z,89.90
2022-11-19T08:02:22.310Z,89.90
2022-11-19T08:03:17.715Z,89.94
2022-11-19T08:04:13.073Z,89.94
2022-11-19T08:05:08.431Z,90.00
2022-11-19T08:06:03.936Z,89.99
2022-11-19T08:06:59.206Z,90.00
2022-11-19T08:07:54.582Z,89.93
2022-11-19T08:08:50.002Z,89.98
2022-11-19T08:09:45.359Z,89.98
2022-11-19T08:10:40.841Z,90.02
2022-11-19T08:11:36.081Z,90.04
2022-11-19T08:12:31.183Z,90.00
2022-11-19T08:13:26.176Z,90.08
2022-11-19T08:14:21.269Z,90.13
2022-11-19T08:15:16.303Z,90.15
2022-11-19T08:16:11.442Z,90.25
2022-11-19T08:17:06.468Z,90.24
2022-11-19T08:18:01.573Z,90.17
2022-11-19T08:18:57.008Z,90.15
2022-11-19T08:19:52.097Z,90.24
2022-11-19T08:20:47.184Z,90.29
2022-11-19T08:21:42.273Z,90.26
2022-11-19T08:22:37.217Z,90.24
2022-11-19T08:23:32.341Z,90.28
2022-11-19T08:24:27.440Z,90.15
2022-11-19T08:25:22.408Z,90.10
2022-11-19T08:26:17.470Z,90.02
2022-11-19T08:27:12.585Z,89.89
2022-11-19T08:28:07.677Z,89.74
2022-11-19T08:29:02.787Z,89.74
2022-11-19T08:29:57.900Z,89.69
2022-11-19T08:30:53.014Z,89.68
2022-11-19T08:31:48.228Z,89.62
2022-11-19T08:32:43.741Z,89.48
2022-11-19T08:33:39.217Z,89.39
2022-11-19T08:34:34.550Z,89.38
2022-11-19T08:35:29.785Z,89.30
2022-11-19T08:36:25.324Z,89.30
2022-11-19T08:37:20.653Z,89.25
2022-11-19T08:38:15.921Z,89.25
2022-11-19T08:39:11.376Z,89.00
2022-11-19T08:40:06.701Z,89.11
2022-11-19T08:41:02.063Z,89.23
2022-11-19T08:41:57.424Z,89.17
2022-11-19T08:42:52.808Z,89.11
2022-11-19T08:43:48.295Z,89.15
2022-11-19T08:44:43.540Z,89.64
2022-11-19T08:45:38.681Z,88.79
2022-11-19T08:46:33.920Z,88.08
2022-11-19T08:47:28.898Z,88.51
2022-11-19T08:48:23.972Z,87.33
2022-11-19T08:49:19.028Z,84.14
2022-11-19T08:50:13.992Z,81.23
2022-11-19T08:51:09.100Z,80.75
2022-11-19T08:52:04.182Z,81.89
2022-11-19T08:52:59.265Z,82.81
2022-11-19T08:53:54.337Z,82.72
2022-11-19T08:54:49.339Z,82.99
2022-11-19T08:55:44.397Z,81.73
2022-11-19T08:56:39.505Z,80.46
2022-11-19T08:57:34.464Z,78.91
2022-11-19T08:58:30.105Z,78.50
2022-11-19T08:59:25.105Z,78.81
2022-11-19T09:00:20.327Z,79.07
2022-11-19T09:01:15.492Z,78.71
2022-11-19T09:02:10.480Z,79.21
2022-11-19T09:03:05.586Z,80.24
2022-11-19T09:04:00.697Z,81.09
2022-11-19T09:04:55.660Z,81.89
2022-11-19T09:05:51.061Z,83.04
2022-11-19T09:06:46.263Z,83.56
2022-11-19T09:07:41.740Z,83.74
2022-11-19T09:08:37.350Z,83.92
2022-11-19T09:09:32.941Z,84.13
2022-11-19T09:10:27.912Z,84.40
2022-11-19T09:11:22.931Z,84.24
2022-11-19T09:12:17.933Z,83.16
2022-11-19T09:13:13.072Z,81.30
2022-11-19T09:14:08.139Z,78.29
2022-11-19T09:15:03.259Z,75.13
2022-11-19T09:15:58.259Z,74.09
2022-11-19T09:16:53.355Z,73.07
2022-11-19T09:17:48.396Z,70.04
2022-11-19T09:18:43.529Z,69.46
2022-11-19T09:19:38.738Z,69.46
2022-11-19T09:20:34.364Z,70.59
2022-11-19T09:21:29.837Z,72.27
2022-11-19T09:22:25.318Z,73.54
2022-11-19T09:23:20.825Z,74.93
2022-11-19T09:24:16.342Z,74.58
2022-11-19T09:25:11.402Z,74.92
2022-11-19T09:26:06.495Z,73.61
2022-11-19T09:27:02.509Z,72.25
2022-11-19T09:27:56.613Z,71.00
2022-11-19T09:28:51.643Z,71.76
2022-11-19T09:29:46.663Z,73.21
2022-11-19T09:30:41.654Z,74.43
2022-11-19T09:31:36.700Z,75.34
2022-11-19T09:32:31.703Z,77.10
2022-11-19T09:33:26.849Z,76.00
2022-11-19T09:34:22.283Z,75.99
2022-11-19T09:35:17.143Z,76.57
2022-11-19T09:36:12.060Z,76.90
2022-11-19T09:37:07.175Z,77.01
2022-11-19T09:38:04.313Z,76.48
2022-11-19T09:38:59.582Z,76.24
2022-11-19T09:39:54.930Z,76.44
2022-11-19T09:40:50.323Z,76.92
2022-11-19T09:41:45.937Z,77.61
2022-11-19T09:42:41.321Z,78.02
2022-11-19T09:43:37.441Z,78.23
2022-11-19T09:44:32.730Z,78.55
2022-11-19T09:45:28.139Z,78.35
2022-11-19T09:46:23.598Z,78.72
2022-11-19T09:47:19.173Z,78.82
2022-11-19T09:48:14.796Z,78.87
2022-11-19T09:49:09.974Z,78.89
2022-11-19T09:50:05.383Z,78.61
2022-11-19T09:51:00.841Z,78.55
2022-11-19T09:51:55.902Z,78.87
2022-11-19T09:52:50.920Z,79.46
2022-11-19T09:53:46.222Z,80.09
2022-11-19T09:54:41.402Z,80.82
2022-11-19T09:55:36.338Z,81.27
2022-11-19T09:56:31.367Z,81.44
2022-11-19T09:57:26.518Z,81.71
2022-11-19T09:58:21.506Z,81.88
2022-11-19T09:59:16.571Z,81.39
2022-11-19T10:00:11.577Z,81.09
2022-11-19T10:01:08.218Z,81.65
2022-11-19T10:02:03.353Z,81.67
2022-11-19T10:02:58.616Z,81.87
2022-11-19T10:03:53.688Z,81.56
2022-11-19T10:04:49.355Z,81.78
2022-11-19T10:05:44.718Z,81.71
2022-11-19T10:06:40.127Z,81.77
2022-11-19T10:07:35.562Z,81.75
2022-11-19T10:08:31.107Z,81.34
2022-11-19T10:09:26.504Z,80.90
2022-11-19T10:10:21.877Z,81.06
2022-11-19T10:11:17.278Z,81.70
2022-11-19T10:12:12.617Z,82.09
2022-11-19T10:13:07.988Z,82.32
2022-11-19T10:14:03.402Z,82.30
2022-11-19T10:14:58.794Z,82.44
2022-11-19T10:15:57.751Z,82.41
2022-11-19T10:16:53.001Z,87.77
2022-11-19T10:17:48.081Z,87.15
2022-11-19T10:18:43.064Z,83.95
2022-11-19T10:19:38.196Z,82.07
2022-11-19T10:20:33.211Z,80.78
2022-11-19T10:21:28.211Z,80.03
2022-11-19T10:22:23.301Z,81.16
2022-11-19T10:23:18.309Z,80.36
2022-11-19T10:24:14.771Z,80.37
2022-11-19T10:25:09.870Z,79.24
2022-11-19T10:26:05.137Z,79.82
2022-11-19T10:27:04.367Z,80.31
2022-11-19T10:27:57.021Z,79.64
2022-11-19T10:28:51.489Z,79.75
2022-11-19T10:29:47.052Z,78.21
2022-11-19T10:30:43.345Z,78.20
2022-11-19T10:31:37.940Z,78.11
2022-11-19T10:32:33.466Z,78.36
2022-11-19T10:33:28.887Z,78.33
2022-11-19T10:34:24.364Z,78.79
2022-11-19T10:35:19.839Z,79.55
2022-11-19T10:36:15.259Z,79.85
2022-11-19T10:37:10.933Z,79.96
2022-11-19T10:38:06.229Z,79.80
2022-11-19T10:39:01.648Z,79.40
2022-11-19T10:39:57.067Z,78.90
2022-11-19T10:40:52.146Z,78.67
2022-11-19T10:41:47.235Z,78.85
2022-11-19T10:42:42.216Z,78.76
2022-11-19T10:43:37.345Z,78.78
2022-11-19T10:44:32.351Z,78.75
2022-11-19T10:45:27.381Z,78.63
2022-11-19T10:46:22.452Z,78.69
2022-11-19T10:47:19.679Z,78.66
2022-11-19T10:48:14.831Z,78.00
2022-11-19T10:49:09.990Z,77.21
2022-11-19T10:50:10.967Z,77.38
2022-11-19T10:51:01.071Z,77.36
2022-11-19T10:51:55.100Z,77.92
2022-11-19T10:52:50.220Z,78.38
2022-11-19T10:53:45.308Z,78.29
2022-11-19T10:54:40.471Z,78.05
2022-11-19T10:55:35.847Z,78.29
2022-11-19T10:56:31.294Z,78.50
2022-11-19T10:57:26.673Z,78.72
2022-11-19T10:58:22.048Z,78.51
2022-11-19T10:59:17.736Z,78.35
2022-11-19T11:00:12.921Z,78.34
2022-11-19T11:01:08.385Z,78.02
2022-11-19T11:02:03.636Z,77.94
2022-11-19T11:02:58.998Z,77.26
2022-11-19T11:03:54.515Z,76.69
2022-11-19T11:04:49.812Z,76.74
2022-11-19T11:05:45.201Z,77.14
2022-11-19T11:06:40.615Z,77.05
2022-11-19T11:07:36.095Z,76.80
2022-11-19T11:08:31.359Z,76.99
2022-11-19T11:09:26.809Z,77.06
2022-11-19T11:10:26.284Z,76.97
2022-11-19T11:11:21.756Z,76.99
2022-11-19T11:12:17.183Z,77.04
2022-11-19T11:13:12.671Z,77.00
2022-11-19T11:14:08.137Z,76.64
2022-11-19T11:15:03.602Z,77.02
2022-11-19T11:15:59.059Z,77.32
2022-11-19T11:16:54.490Z,77.21
2022-11-19T11:17:50.014Z,77.07
2022-11-19T11:18:45.342Z,77.25
2022-11-19T11:19:40.740Z,76.71
2022-11-19T11:20:36.160Z,76.51
2022-11-19T11:21:31.633Z,76.67
2022-11-19T11:22:26.603Z,77.02
2022-11-19T11:23:21.601Z,76.78
2022-11-19T11:24:16.734Z,76.85
2022-11-19T11:25:11.740Z,77.02
2022-11-19T11:26:06.759Z,76.78
2022-11-19T11:27:01.773Z,76.73
2022-11-19T11:27:56.967Z,76.78
2022-11-19T11:28:51.926Z,76.98
2022-11-19T11:29:47.055Z,77.23
2022-11-19T11:30:42.078Z,77.30
2022-11-19T11:31:39.616Z,77.53
2022-11-19T11:32:34.739Z,77.79
2022-11-19T11:33:29.847Z,77.75
2022-11-19T11:34:24.819Z,77.20
2022-11-19T11:35:19.897Z,77.16
2022-11-19T11:36:14.895Z,77.21
2022-11-19T11:37:09.869Z,77.38
2022-11-19T11:38:04.995Z,77.63
2022-11-19T11:38:59.962Z,77.42
2022-11-19T11:39:55.081Z,77.29
2022-11-19T11:40:59.946Z,77.54
2022-11-19T11:42:05.298Z,77.70
2022-11-19T11:42:43.214Z,77.65
2022-11-19T11:43:37.972Z,77.61
2022-11-19T11:44:33.139Z,77.60
2022-11-19T11:45:28.854Z,77.75
2022-11-19T11:46:24.981Z,78.00
2022-11-19T11:47:20.077Z,78.10
2022-11-19T11:48:15.500Z,78.18
2022-11-19T11:49:12.782Z,78.11
2022-11-19T11:50:06.732Z,78.30
2022-11-19T11:51:02.149Z,77.92
2022-11-19T11:51:57.596Z,77.78
2022-11-19T11:52:53.883Z,77.75